Time;durP1;ratioP1;P1;durP2;ratioP2;P2;SDS_P1;SDS_P2;PMS_P1;PMS_P2;Temp;Humidity;BMP_temperature;BMP_pressure;BME280_temperature;BME280_humidity;BME280_pressure;Samples;Min_cycle;Max_cycle;Signal;HPM_P1;HPM_P2
2022/10/16 00:01:37;;;;;;;36.33;24.43;;;;;;;11.41;100.00;98229.90;1732196;82;20888;-81
2022/10/16 00:04:04;;;;;;;36.28;24.50;;;;;;;11.38;100.00;98231.83;1744140;81;21067;-81
2022/10/16 00:06:30;;;;;;;25.85;17.45;;;;;;;11.36;100.00;98228.55;1730675;82;21020;-81
2022/10/16 00:08:56;;;;;;;34.25;22.52;;;;;;;11.34;100.00;98229.39;1730274;82;21043;-81
2022/10/16 00:11:28;;;;;;;28.45;20.05;;;;;;;11.34;100.00;98234.81;1730569;82;20947;-83
2022/10/16 00:13:57;;;;;;;28.27;19.17;;;;;;;11.33;100.00;98238.62;1737697;81;21559;-81
2022/10/16 00:16:23;;;;;;;29.72;20.82;;;;;;;11.32;100.00;98235.64;1760612;81;21066;-81
2022/10/16 00:18:49;;;;;;;24.00;17.85;;;;;;;11.32;100.00;98242.42;1760558;81;21661;-81
2022/10/16 00:21:21;;;;;;;30.88;19.07;;;;;;;11.32;100.00;98242.97;1760893;81;20916;-81
2022/10/16 00:23:49;;;;;;;25.05;17.40;;;;;;;11.34;100.00;98247.56;1760438;81;20995;-82
2022/10/16 00:26:16;;;;;;;22.90;15.78;;;;;;;11.30;100.00;98248.68;1761018;81;21069;-81
2022/10/16 00:28:42;;;;;;;27.32;17.35;;;;;;;11.26;100.00;98242.17;1760581;81;21915;-81
2022/10/16 00:31:10;;;;;;;23.62;15.68;;;;;;;11.27;100.00;98250.58;1760719;81;20845;-81
2022/10/16 00:33:37;;;;;;;27.05;17.90;;;;;;;11.27;100.00;98252.73;1760867;81;20972;-81
2022/10/16 00:36:04;;;;;;;27.58;20.90;;;;;;;11.29;100.00;98264.70;1760727;81;21049;-81
2022/10/16 00:38:30;;;;;;;30.23;21.07;;;;;;;11.32;100.00;98270.91;1760547;81;21030;-81
2022/10/16 00:40:56;;;;;;;29.77;19.67;;;;;;;11.34;100.00;98267.37;1760826;81;21151;-81
2022/10/16 00:43:45;;;;;;;31.33;20.77;;;;;;;11.34;100.00;98270.63;1760546;81;20895;-81
2022/10/16 00:46:19;;;;;;;36.33;24.43;;;;;;;11.36;100.00;98271.16;1760999;81;21494;-81
2022/10/16 00:48:56;;;;;;;30.75;23.05;;;;;;;11.36;100.00;98278.74;1755204;81;21007;-81
2022/10/16 00:51:26;;;;;;;36.63;26.42;;;;;;;11.34;100.00;98280.94;1758299;81;21015;-81
2022/10/16 00:53:52;;;;;;;35.90;25.02;;;;;;;11.35;100.00;98282.55;1760523;81;21142;-81
2022/10/16 00:56:17;;;;;;;36.33;24.05;;;;;;;11.33;100.00;98283.93;1730792;81;20940;-81
2022/10/16 00:58:43;;;;;;;29.02;21.23;;;;;;;11.32;100.00;98289.09;1760419;81;20916;-81
2022/10/16 01:01:09;;;;;;;31.68;20.60;;;;;;;11.29;100.00;98290.47;1760892;81;20853;-81
2022/10/16 01:03:36;;;;;;;27.60;20.62;;;;;;;11.25;100.00;98284.77;1756340;81;21059;-81
2022/10/16 01:06:24;;;;;;;26.75;19.15;;;;;;;11.22;100.00;98288.05;1762427;81;21292;-81
2022/10/16 01:09:20;;;;;;;27.58;20.65;;;;;;;11.21;100.00;98290.49;1762434;81;21015;-81
2022/10/16 01:12:15;;;;;;;30.72;23.55;;;;;;;11.21;100.00;98289.14;1761682;81;20996;-81
2022/10/16 01:14:54;;;;;;;35.33;22.35;;;;;;;11.21;100.00;98286.97;1757821;81;21071;-81
2022/10/16 01:17:34;;;;;;;34.90;22.98;;;;;;;11.22;100.00;98281.81;1758884;81;21197;-81
2022/10/16 01:20:23;;;;;;;34.20;21.95;;;;;;;11.17;100.00;98285.34;1721845;81;21815;-82
2022/10/16 01:22:57;;;;;;;27.25;16.32;;;;;;;11.14;100.00;98288.61;1745685;81;21016;-81
2022/10/16 01:25:38;;;;;;;63.68;31.37;;;;;;;11.14;100.00;98285.91;1768077;81;20985;-81
2022/10/16 01:28:04;;;;;;;30.25;18.50;;;;;;;11.14;100.00;98279.67;1768414;81;21206;-81
2022/10/16 01:30:31;;;;;;;26.02;17.65;;;;;;;11.10;100.00;98286.17;1768682;81;21547;-81
2022/10/16 01:33:05;;;;;;;22.73;16.35;;;;;;;11.10;100.00;98279.39;1745720;82;21025;-80
2022/10/16 01:35:38;;;;;;;28.95;18.92;;;;;;;11.11;100.00;98286.98;1768165;81;21028;-81
2022/10/16 01:38:17;;;;;;;26.77;16.80;;;;;;;11.12;100.00;98292.16;1768426;81;21076;-81
2022/10/16 01:40:47;;;;;;;21.90;16.77;;;;;;;11.14;100.00;98295.39;1768753;81;20985;-81
2022/10/16 01:43:27;;;;;;;27.25;17.60;;;;;;;11.16;100.00;98297.83;1768481;81;21012;-81
2022/10/16 01:45:53;;;;;;;22.13;17.10;;;;;;;11.17;100.00;98296.73;1768259;81;22081;-80
2022/10/16 01:48:19;;;;;;;22.75;15.63;;;;;;;11.16;100.00;98291.86;1768336;81;20952;-81
2022/10/16 01:51:00;;;;;;;37.00;22.05;;;;;;;11.17;100.00;98289.95;1745850;82;20993;-81
2022/10/16 01:53:26;;;;;;;47.40;33.60;;;;;;;11.14;100.00;98290.52;1745619;82;21068;-81
2022/10/16 01:55:52;;;;;;;58.30;40.70;;;;;;;11.15;100.00;98292.95;1738347;81;21063;-81
2022/10/16 01:58:18;;;;;;;49.13;32.13;;;;;;;11.13;100.00;98297.84;1768357;81;21963;-81
2022/10/16 02:00:45;;;;;;;45.10;31.15;;;;;;;11.15;100.00;98295.66;1768610;81;20935;-81
2022/10/16 02:03:12;;;;;;;42.50;29.02;;;;;;;11.15;100.00;98297.56;1768565;81;21439;-81
2022/10/16 02:05:54;;;;;;;37.53;27.37;;;;;;;11.15;100.00;98298.38;1783221;80;21057;-81
2022/10/16 02:08:21;;;;;;;42.60;28.40;;;;;;;11.16;100.00;98290.50;1772723;80;21101;-81
2022/10/16 02:10:46;;;;;;;40.67;29.77;;;;;;;11.17;100.00;98303.52;1772794;80;21067;-81
2022/10/16 02:13:38;;;;;;;90.95;45.10;;;;;;;11.15;100.00;98298.92;1772306;80;21645;-81
2022/10/16 02:16:04;;;;;;;34.23;20.92;;;;;;;11.18;100.00;98304.59;1738943;82;21097;-81
2022/10/16 02:18:30;;;;;;;29.37;18.50;;;;;;;11.16;100.00;98300.54;1738744;82;21034;-81
2022/10/16 02:21:19;;;;;;;26.27;15.70;;;;;;;11.16;100.00;98297.28;1734068;82;21704;-81
2022/10/16 02:24:12;;;;;;;23.85;15.88;;;;;;;11.12;100.00;98294.87;1739084;82;26942;-81
2022/10/16 02:26:56;;;;;;;24.32;15.40;;;;;;;11.01;100.00;98300.03;1738935;82;21023;-81
2022/10/16 02:29:24;;;;;;;23.27;16.17;;;;;;;10.98;100.00;98290.56;1748847;81;21010;-81
2022/10/16 02:31:59;;;;;;;27.90;16.62;;;;;;;10.98;100.00;98287.03;1691443;83;21030;-81
2022/10/16 02:34:25;;;;;;;23.77;16.45;;;;;;;10.95;100.00;98290.31;1730868;82;21038;-81
2022/10/16 02:36:51;;;;;;;20.55;14.55;;;;;;;10.94;100.00;98293.56;1725627;82;41826;-81
2022/10/16 02:39:18;;;;;;;22.85;16.40;;;;;;;10.95;100.00;98291.66;1730737;82;21472;-81
2022/10/16 02:41:44;;;;;;;32.03;15.48;;;;;;;10.92;100.00;98293.00;1726129;82;20975;-81
2022/10/16 02:44:09;;;;;;;16.70;13.43;;;;;;;10.91;100.00;98294.64;1730790;82;20872;-81
2022/10/16 02:46:35;;;;;;;29.75;18.25;;;;;;;10.89;100.00;98293.56;1731140;82;20979;-81
2022/10/16 02:49:01;;;;;;;27.22;20.27;;;;;;;10.91;100.00;98302.77;1730923;82;21621;-81
2022/10/16 02:51:27;;;;;;;21.52;14.63;;;;;;;10.91;100.00;98306.30;1731096;82;20884;-81
2022/10/16 02:53:53;;;;;;;17.82;13.58;;;;;;;10.96;100.00;98310.36;1730922;82;20927;-81
2022/10/16 02:56:19;;;;;;;20.52;13.95;;;;;;;10.98;100.00;98306.02;1731158;82;20877;-80
2022/10/16 02:58:45;;;;;;;21.07;14.43;;;;;;;10.99;100.00;98308.45;1730786;82;20893;-81
2022/10/16 03:01:12;;;;;;;20.08;15.35;;;;;;;10.99;100.00;98311.16;1730886;82;21152;-81
2022/10/16 03:03:38;;;;;;;20.50;14.47;;;;;;;10.97;100.00;98312.53;1735561;81;21103;-80
2022/10/16 03:06:05;;;;;;;18.07;14.05;;;;;;;10.95;100.00;98310.09;1761162;81;21582;-81
2022/10/16 03:08:31;;;;;;;24.07;16.00;;;;;;;10.91;100.00;98317.14;1761089;81;21287;-80
2022/10/16 03:10:57;;;;;;;21.33;15.28;;;;;;;10.83;100.00;98316.89;1761446;81;21039;-81
2022/10/16 03:13:23;;;;;;;20.45;14.47;;;;;;;10.81;100.00;98313.64;1760916;81;21293;-81
2022/10/16 03:15:49;;;;;;;20.77;15.13;;;;;;;10.74;100.00;98313.38;1761336;81;20892;-81
2022/10/16 03:18:15;;;;;;;20.55;14.90;;;;;;;10.72;100.00;98307.97;1761117;81;21586;-81
2022/10/16 03:20:42;;;;;;;21.85;14.60;;;;;;;10.69;100.00;98312.59;1761046;81;20868;-81
2022/10/16 03:23:08;;;;;;;23.73;15.05;;;;;;;10.62;100.00;98310.15;1761038;81;21090;-81
2022/10/16 03:25:34;;;;;;;16.97;13.90;;;;;;;10.59;100.00;98306.61;1761065;81;21232;-81
2022/10/16 03:27:59;;;;;;;22.70;15.88;;;;;;;10.55;100.00;98308.80;1761076;81;21026;-80
2022/10/16 03:30:26;;;;;;;23.12;16.27;;;;;;;10.52;100.00;98321.00;1761291;81;20900;-81
2022/10/16 03:32:53;;;;;;;20.27;14.90;;;;;;;10.44;100.00;98314.23;1761282;81;20987;-81
2022/10/16 03:35:23;;;;;;;20.77;15.35;;;;;;;10.39;100.00;98321.53;1761175;81;21058;-81
2022/10/16 03:37:50;;;;;;;20.72;16.00;;;;;;;10.33;100.00;98330.19;1761247;81;21102;-81
2022/10/16 03:40:16;;;;;;;21.85;16.12;;;;;;;10.29;100.00;98335.89;1761065;81;21055;-81
2022/10/16 03:42:43;;;;;;;22.82;16.20;;;;;;;10.21;100.00;98344.52;1761095;81;21090;-81
2022/10/16 03:45:10;;;;;;;24.70;15.13;;;;;;;10.20;100.00;98348.86;1761348;81;21019;-81
2022/10/16 03:47:35;;;;;;;25.50;16.48;;;;;;;10.12;100.00;98345.59;1761297;81;21059;-81
2022/10/16 03:50:01;;;;;;;22.20;14.90;;;;;;;10.09;100.00;98348.84;1761239;81;21026;-81
2022/10/16 03:52:27;;;;;;;20.25;14.15;;;;;;;10.05;100.00;98355.05;1761316;81;21652;-81
2022/10/16 03:54:53;;;;;;;22.87;14.53;;;;;;;9.99;100.00;98358.81;1761317;81;20916;-81
2022/10/16 03:57:20;;;;;;;20.95;15.28;;;;;;;9.96;100.00;98358.82;1761348;81;21003;-80
2022/10/16 03:59:46;;;;;;;22.10;16.67;;;;;;;9.95;100.00;98362.61;1761038;81;21499;-81
2022/10/16 04:02:12;;;;;;;25.25;17.10;;;;;;;9.96;100.00;98366.95;1761352;81;21617;-81
2022/10/16 04:04:38;;;;;;;25.02;16.95;;;;;;;9.95;100.00;98366.67;1743911;81;21035;-81
2022/10/16 04:07:04;;;;;;;22.70;17.55;;;;;;;9.97;100.00;98376.69;1731326;82;20988;-82
2022/10/16 04:09:30;;;;;;;21.60;14.05;;;;;;;9.96;100.00;98377.77;1731076;82;21365;-81
2022/10/16 04:11:56;;;;;;;21.37;13.65;;;;;;;9.95;100.00;98384.27;1731268;82;21674;-81
2022/10/16 04:14:22;;;;;;;23.32;17.82;;;;;;;9.92;100.00;98371.82;1744168;81;21157;-81
2022/10/16 04:16:48;;;;;;;29.35;15.58;;;;;;;9.91;100.00;98376.39;1761365;81;20900;-81
2022/10/16 04:19:14;;;;;;;23.47;14.38;;;;;;;9.90;100.00;98386.95;1761151;81;20987;-81
2022/10/16 04:21:40;;;;;;;22.27;16.30;;;;;;;9.89;100.00;98386.68;1761565;81;20952;-81
2022/10/16 04:24:05;;;;;;;24.80;15.78;;;;;;;9.89;100.00;98381.27;1761225;81;21629;-80
2022/10/16 04:26:32;;;;;;;19.42;13.55;;;;;;;9.89;100.00;98386.68;1761471;81;21039;-80
2022/10/16 04:28:57;;;;;;;29.85;14.70;;;;;;;9.82;100.00;98382.86;1761252;81;20936;-80
2022/10/16 04:31:23;;;;;;;18.92;14.98;;;;;;;9.78;100.00;98387.73;1761491;81;20860;-81
2022/10/16 04:33:49;;;;;;;20.00;14.38;;;;;;;9.78;100.00;98389.09;1761231;81;21023;-80
2022/10/16 04:36:15;;;;;;;24.87;15.30;;;;;;;9.76;100.00;98383.95;1761587;81;21590;-81
2022/10/16 04:38:41;;;;;;;21.85;14.87;;;;;;;9.73;100.00;98386.35;1761236;81;21245;-81
2022/10/16 04:41:07;;;;;;;21.68;15.45;;;;;;;9.70;100.00;98386.34;1760971;81;21026;-81
2022/10/16 04:43:34;;;;;;;22.52;14.58;;;;;;;9.65;100.00;98382.80;1761356;81;20996;-80
2022/10/16 04:46:00;;;;;;;23.83;16.57;;;;;;;9.64;100.00;98390.64;1755753;81;21034;-81
2022/10/16 04:48:25;;;;;;;20.85;14.20;;;;;;;9.64;100.00;98387.94;1751556;81;21072;-80
2022/10/16 04:50:51;;;;;;;24.87;16.62;;;;;;;9.60;100.00;98394.43;1751624;81;21154;-81
2022/10/16 04:53:17;;;;;;;25.12;15.35;;;;;;;9.59;100.00;98391.45;1751492;81;20998;-81
2022/10/16 04:55:43;;;;;;;25.80;15.48;;;;;;;9.56;100.00;98390.07;1751456;81;20867;-81
2022/10/16 04:58:09;;;;;;;22.25;15.32;;;;;;;9.57;100.00;98400.34;1751584;81;21559;-81
2022/10/16 05:00:35;;;;;;;29.63;17.32;;;;;;;9.55;100.00;98392.50;1751577;81;20994;-80
2022/10/16 05:03:01;;;;;;;25.70;16.35;;;;;;;9.56;100.00;98396.83;1751541;81;21551;-81
2022/10/16 05:05:27;;;;;;;23.38;15.65;;;;;;;9.55;100.00;98396.56;1732854;81;20856;-80
2022/10/16 05:07:53;;;;;;;20.37;14.75;;;;;;;9.53;100.00;98398.72;1731042;82;21062;-81
2022/10/16 05:10:19;;;;;;;26.30;16.80;;;;;;;9.48;100.00;98402.75;1731091;82;20931;-81
2022/10/16 05:12:46;;;;;;;28.10;17.35;;;;;;;9.47;100.00;98409.77;1731214;82;21055;-81
2022/10/16 05:15:12;;;;;;;21.42;15.75;;;;;;;9.43;100.00;98408.69;1724541;81;21174;-81
2022/10/16 05:17:38;;;;;;;24.27;16.70;;;;;;;9.39;100.00;98404.86;1761299;81;20999;-81
2022/10/16 05:20:05;;;;;;;22.87;15.63;;;;;;;9.36;100.00;98412.16;1761155;81;21493;-81
2022/10/16 05:22:31;;;;;;;22.67;14.60;;;;;;;9.31;100.00;98412.93;1761288;81;21023;-80
2022/10/16 05:24:57;;;;;;;24.57;16.77;;;;;;;9.29;100.00;98414.55;1761260;81;20892;-80
2022/10/16 05:27:23;;;;;;;22.75;14.35;;;;;;;9.28;100.00;98414.27;1761135;81;21749;-81
2022/10/16 05:29:49;;;;;;;27.25;17.52;;;;;;;9.27;100.00;98418.06;1761215;81;21015;-81
2022/10/16 05:32:15;;;;;;;29.92;18.92;;;;;;;9.26;100.00;98416.98;1761310;81;21030;-82
2022/10/16 05:34:41;;;;;;;26.00;16.10;;;;;;;9.28;100.00;98416.17;1761326;81;21098;-80
2022/10/16 05:37:07;;;;;;;22.42;16.45;;;;;;;9.27;100.00;98412.65;1761523;81;20942;-81
2022/10/16 05:39:33;;;;;;;29.00;22.13;;;;;;;9.27;100.00;98416.70;1761291;81;21257;-81
2022/10/16 05:41:59;;;;;;;36.35;24.25;;;;;;;9.20;100.00;98414.77;1761514;81;21007;-80
2022/10/16 05:44:25;;;;;;;36.58;25.88;;;;;;;9.17;100.00;98416.65;1761310;81;20868;-81
2022/10/16 05:46:51;;;;;;;37.80;26.30;;;;;;;9.19;100.00;98420.44;1761441;81;20876;-80
2022/10/16 05:49:17;;;;;;;36.63;24.87;;;;;;;9.25;100.00;98430.22;1761010;81;20904;-81
2022/10/16 05:51:43;;;;;;;29.23;21.42;;;;;;;9.28;100.00;98431.85;1761383;81;21030;-80
2022/10/16 05:54:09;;;;;;;31.95;22.93;;;;;;;9.33;100.00;98437.31;1760996;81;21389;-81
2022/10/16 05:56:34;;;;;;;34.03;22.48;;;;;;;9.38;100.00;98428.93;1761037;81;22431;-80
2022/10/16 05:59:00;;;;;;;29.45;18.75;;;;;;;9.40;100.00;98428.97;1760980;81;20959;-81
2022/10/16 06:01:26;;;;;;;40.10;27.25;;;;;;;9.41;100.00;98427.89;1761209;81;20900;-81
2022/10/16 06:03:53;;;;;;;42.62;29.42;;;;;;;9.45;100.00;98437.09;1753359;81;21142;-80
2022/10/16 06:06:22;;;;;;;37.25;25.95;;;;;;;9.51;100.00;98429.29;1730819;82;22020;-81
2022/10/16 06:08:49;;;;;;;44.60;30.50;;;;;;;9.58;100.00;98437.98;1730870;82;21063;-81
2022/10/16 06:11:23;;;;;;;58.83;38.60;;;;;;;9.67;100.00;98444.25;1753812;81;21444;-81
2022/10/16 06:13:54;;;;;;;53.17;33.90;;;;;;;9.66;100.00;98448.05;1756313;81;21025;-81
2022/10/16 06:16:20;;;;;;;42.62;28.47;;;;;;;9.70;100.00;98453.19;1751457;81;22036;-80
2022/10/16 06:18:46;;;;;;;42.83;28.57;;;;;;;9.73;100.00;98454.81;1751302;81;20998;-81
2022/10/16 06:21:16;;;;;;;42.10;28.15;;;;;;;9.72;100.00;98455.09;1751506;81;21041;-81
2022/10/16 06:23:42;;;;;;;47.03;33.00;;;;;;;9.70;100.00;98458.60;1724128;81;21669;-81
2022/10/16 06:26:13;;;;;;;47.35;30.88;;;;;;;9.64;100.00;98469.92;1751550;81;21714;-81
2022/10/16 06:28:39;;;;;;;40.08;27.70;;;;;;;9.61;100.00;98467.75;1751598;81;21313;-81
2022/10/16 06:31:06;;;;;;;33.10;22.60;;;;;;;9.63;100.00;98472.36;1751501;81;21012;-81
2022/10/16 06:33:32;;;;;;;27.15;20.85;;;;;;;9.67;100.00;98476.72;1751506;81;21003;-81
2022/10/16 06:36:03;;;;;;;32.70;20.80;;;;;;;9.69;100.00;98482.69;1751567;81;21069;-80
2022/10/16 06:38:29;;;;;;;39.13;26.05;;;;;;;9.73;100.00;98482.42;1751772;81;21056;-81
2022/10/16 06:40:55;;;;;;;41.73;27.13;;;;;;;9.77;100.00;98487.59;1751397;81;21766;-81
2022/10/16 06:43:21;;;;;;;41.48;28.20;;;;;;;9.83;100.00;98481.95;1751559;81;21081;-81
2022/10/16 06:45:56;;;;;;;47.73;33.00;;;;;;;9.93;100.00;98490.66;1751652;81;21579;-81
2022/10/16 06:48:22;;;;;;;37.88;27.98;;;;;;;10.04;100.00;98491.51;1751628;81;21025;-81
2022/10/16 06:51:03;;;;;;;31.25;21.70;;;;;;;10.25;100.00;98503.25;1723797;81;21091;-81
2022/10/16 06:53:34;;;;;;;35.13;26.62;;;;;;;10.32;100.00;98501.11;1751847;81;21233;-81
2022/10/16 06:56:13;;;;;;;45.33;31.90;;;;;;;10.46;100.00;98498.19;1750721;81;21053;-81
2022/10/16 06:58:39;;;;;;;34.88;24.67;;;;;;;10.66;100.00;98500.12;1751722;81;21053;-81
2022/10/16 07:01:05;;;;;;;32.23;22.70;;;;;;;10.87;100.00;98492.84;1751482;81;21073;-81
2022/10/16 07:03:31;;;;;;;27.05;19.42;;;;;;;11.58;100.00;98494.15;1749463;81;21017;-81
2022/10/16 07:06:03;;;;;;;20.70;18.10;;;;;;;12.71;100.00;98496.14;1731342;82;21169;-81
2022/10/16 07:08:37;;;;;;;20.95;17.02;;;;;;;13.59;100.00;98490.30;1703176;82;21078;-81
2022/10/16 07:11:09;;;;;;;17.92;15.68;;;;;;;14.33;100.00;98490.80;1731248;82;21039;-82
2022/10/16 07:13:36;;;;;;;22.73;16.05;;;;;;;15.29;100.00;98495.39;1734020;81;21058;-81
2022/10/16 07:16:11;;;;;;;23.22;17.07;;;;;;;16.38;100.00;98490.38;1757806;81;21088;-82
2022/10/16 07:18:38;;;;;;;21.48;16.60;;;;;;;16.87;100.00;98489.58;1757915;81;21449;-82
2022/10/16 07:21:10;;;;;;;21.17;15.88;;;;;;;16.82;100.00;98490.50;1757688;81;21075;-81
2022/10/16 07:23:36;;;;;;;19.35;14.28;;;;;;;16.51;100.00;98493.66;1757704;81;21024;-82
2022/10/16 07:26:03;;;;;;;20.27;15.60;;;;;;;15.88;100.00;98506.67;1758088;81;21044;-81
2022/10/16 07:28:29;;;;;;;21.95;14.90;;;;;;;15.52;100.00;98505.94;1757811;81;21035;-81
2022/10/16 07:30:55;;;;;;;20.02;14.15;;;;;;;15.31;100.00;98504.67;1745718;82;21017;-81
2022/10/16 07:33:21;;;;;;;18.95;15.05;;;;;;;15.15;100.00;98500.83;1768583;81;20870;-81
2022/10/16 07:35:53;;;;;;;23.55;16.90;;;;;;;15.07;100.00;98496.05;1745832;82;21017;-81
2022/10/16 07:38:19;;;;;;;23.02;16.07;;;;;;;15.01;100.00;98505.97;1768476;81;21043;-81
2022/10/16 07:40:45;;;;;;;25.15;17.30;;;;;;;14.87;100.00;98497.17;1776621;80;20962;-81
2022/10/16 07:43:11;;;;;;;26.55;19.12;;;;;;;14.83;100.00;98504.88;1745885;82;21157;-82
2022/10/16 07:45:37;;;;;;;24.67;16.20;;;;;;;14.87;100.00;98501.83;1745838;81;20944;-81
2022/10/16 07:48:03;;;;;;;35.90;25.65;;;;;;;14.90;100.00;98495.21;1745862;82;21009;-81
2022/10/16 07:50:29;;;;;;;22.13;17.12;;;;;;;14.95;100.00;98492.41;1745863;81;21013;-81
2022/10/16 07:52:55;;;;;;;28.85;19.82;;;;;;;15.14;100.00;98491.58;1745776;82;21575;-81
2022/10/16 07:55:21;;;;;;;17.98;14.03;;;;;;;15.28;100.00;98484.78;1745999;81;21159;-81
2022/10/16 07:57:47;;;;;;;20.62;13.45;;;;;;;15.40;100.00;98494.13;1745775;82;20957;-81
2022/10/16 08:00:13;;;;;;;16.42;12.70;;;;;;;15.55;100.00;98503.15;1745762;81;20905;-81
2022/10/16 08:02:40;;;;;;;16.32;12.63;;;;;;;15.68;100.00;98507.31;1716079;82;21525;-82
2022/10/16 08:05:07;;;;;;;17.80;10.78;;;;;;;15.72;98.00;98513.81;1750596;81;21959;-81
2022/10/16 08:07:33;;;;;;;12.68;10.25;;;;;;;15.84;94.44;98507.05;1739714;81;21020;-81
2022/10/16 08:09:59;;;;;;;21.05;11.05;;;;;;;15.90;94.14;98506.65;1753558;81;20945;-81
2022/10/16 08:12:26;;;;;;;19.23;14.60;;;;;;;15.99;93.10;98508.93;1753141;81;21043;-82
2022/10/16 08:14:52;;;;;;;13.43;9.98;;;;;;;16.24;95.09;98506.25;1751369;80;21086;-82
2022/10/16 08:17:18;;;;;;;16.90;11.45;;;;;;;16.53;96.44;98501.80;1739149;82;21058;-81
2022/10/16 08:19:47;;;;;;;13.30;10.60;;;;;;;16.86;95.98;98503.02;1709569;82;22403;-82
2022/10/16 08:22:14;;;;;;;15.05;9.85;;;;;;;17.34;95.73;98504.58;1739007;82;21022;-82
2022/10/16 08:24:40;;;;;;;14.07;9.98;;;;;;;18.18;95.60;98504.31;1739243;82;21038;-82
2022/10/16 08:27:06;;;;;;;10.43;7.92;;;;;;;18.91;93.74;98506.03;1738954;82;20987;-82
2022/10/16 08:29:32;;;;;;;9.98;7.45;;;;;;;19.41;91.64;98511.83;1739341;82;21046;-82
2022/10/16 08:31:58;;;;;;;10.23;7.47;;;;;;;20.41;89.07;98505.82;1739049;82;21099;-83
2022/10/16 08:34:24;;;;;;;13.95;7.35;;;;;;;21.16;85.39;98505.97;1738926;82;20895;-82
2022/10/16 08:36:55;;;;;;;8.38;6.65;;;;;;;20.95;84.85;98501.86;1739233;82;21657;-82
2022/10/16 08:39:21;;;;;;;10.13;7.72;;;;;;;20.75;86.51;98506.78;1738970;82;21018;-82
2022/10/16 08:42:07;;;;;;;9.20;7.40;;;;;;;20.55;83.27;98505.63;1739047;82;21659;-82
2022/10/16 08:44:57;;;;;;;11.33;8.25;;;;;;;20.39;84.45;98509.48;1739516;82;21089;-82
2022/10/16 08:47:49;;;;;;;12.20;8.90;;;;;;;20.24;84.96;98512.79;1738508;82;21421;-81
2022/10/16 08:50:28;;;;;;;16.48;12.80;;;;;;;20.05;81.55;98520.65;1739356;81;21015;-82
2022/10/16 08:52:54;;;;;;;10.45;8.53;;;;;;;19.98;83.17;98516.46;1738076;82;21027;-82
2022/10/16 08:55:43;;;;;;;20.48;11.08;;;;;;;19.83;80.65;98516.22;1739379;82;21454;-82
2022/10/16 08:58:16;;;;;;;11.60;7.37;;;;;;;19.76;80.86;98523.59;1739205;82;21066;-82
2022/10/16 09:00:42;;;;;;;13.65;9.33;;;;;;;19.61;78.50;98513.91;1747051;81;21102;-82
2022/10/16 09:03:46;;;;;;;14.78;9.23;;;;;;;19.66;81.94;98522.00;1761774;81;21511;-82
2022/10/16 09:06:29;;;;;;;9.83;7.58;;;;;;;19.65;82.61;98516.80;1765039;81;21076;-82
2022/10/16 09:09:30;;;;;;;12.55;9.15;;;;;;;19.61;82.16;98517.23;1766912;81;21470;-82
2022/10/16 09:12:12;;;;;;;12.40;8.23;;;;;;;19.68;82.50;98520.29;1765990;81;21076;-82
2022/10/16 09:15:14;;;;;;;14.55;9.08;;;;;;;19.82;80.57;98514.58;1755579;81;21535;-82
2022/10/16 09:18:06;;;;;;;13.05;10.00;;;;;;;19.80;80.22;98525.09;1812918;78;21023;-82
2022/10/16 09:20:53;;;;;;;45.35;26.95;;;;;;;19.79;79.87;98517.42;1756850;80;20981;-82
2022/10/16 09:23:28;;;;;;;10.88;7.90;;;;;;;19.90;75.97;98517.86;1791565;79;21020;-82
2022/10/16 09:25:54;;;;;;;12.78;8.28;;;;;;;19.79;75.57;98516.05;1793665;80;20980;-82
2022/10/16 09:28:20;;;;;;;13.93;7.35;;;;;;;19.84;72.83;98515.88;1793192;80;20965;-82
2022/10/16 09:30:48;;;;;;;11.48;7.45;;;;;;;19.87;73.10;98512.47;1793347;80;20862;-82
2022/10/16 09:33:14;;;;;;;12.53;5.73;;;;;;;20.00;71.24;98512.84;1793345;80;20942;-82
2022/10/16 09:35:43;;;;;;;9.25;6.00;;;;;;;20.06;71.12;98517.56;1793195;80;21218;-82
2022/10/16 09:38:11;;;;;;;13.78;6.75;;;;;;;20.05;69.42;98515.95;1792018;80;21084;-82
2022/10/16 09:40:39;;;;;;;13.98;8.70;;;;;;;20.11;69.26;98516.02;1784838;80;21060;-82
2022/10/16 09:43:36;;;;;;;10.35;5.85;;;;;;;20.12;69.99;98517.63;1791310;80;21028;-82
2022/10/16 09:46:24;;;;;;;22.40;12.40;;;;;;;20.18;69.91;98519.64;1791830;80;22208;-82
2022/10/16 09:48:51;;;;;;;15.47;8.07;;;;;;;20.28;68.15;98522.02;1791649;80;21115;-82
2022/10/16 09:51:21;;;;;;;11.08;6.55;;;;;;;20.36;69.43;98521.16;1791610;80;21115;-82
2022/10/16 09:53:47;;;;;;;8.80;5.50;;;;;;;20.48;68.73;98521.85;1791910;80;21053;-82
2022/10/16 09:56:32;;;;;;;11.57;6.75;;;;;;;20.52;69.79;98518.11;1761333;80;20933;-82
2022/10/16 09:59:01;;;;;;;11.28;7.47;;;;;;;20.65;68.45;98511.30;1792190;80;21015;-82
2022/10/16 10:01:48;;;;;;;6.60;5.50;;;;;;;20.78;69.50;98510.26;1767957;80;21080;-82
2022/10/16 10:04:14;;;;;;;13.83;7.33;;;;;;;20.91;69.70;98513.88;1731417;81;21512;-83
2022/10/16 10:06:46;;;;;;;20.92;6.62;;;;;;;20.91;69.52;98512.50;1757489;81;21170;-81
2022/10/16 10:09:25;;;;;;;7.85;5.50;;;;;;;20.93;70.19;98515.72;1748846;81;21014;-82
2022/10/16 10:12:01;;;;;;;8.95;5.03;;;;;;;20.96;69.32;98522.76;1755557;80;21488;-82
2022/10/16 10:14:39;;;;;;;8.05;5.85;;;;;;;21.01;69.29;98513.47;1703864;82;21057;-82
2022/10/16 10:17:10;;;;;;;11.50;5.60;;;;;;;21.03;68.45;98528.54;1703512;82;21167;-82
2022/10/16 10:19:47;;;;;;;10.63;6.53;;;;;;;20.99;69.26;98528.96;1733514;82;21063;-82
2022/10/16 10:22:45;;;;;;;10.38;6.28;;;;;;;20.95;69.25;98539.05;1708203;82;21051;-82
2022/10/16 10:25:25;;;;;;;6.00;4.35;;;;;;;20.93;67.69;98535.00;1733905;82;21070;-82
2022/10/16 10:28:08;;;;;;;7.80;4.67;;;;;;;20.84;66.68;98535.86;1732937;81;21007;-82
2022/10/16 10:31:06;;;;;;;7.60;4.80;;;;;;;20.77;68.55;98534.23;1729316;82;21451;-82
2022/10/16 10:34:05;;;;;;;6.47;5.03;;;;;;;20.79;66.67;98527.81;1722006;82;21063;-82
2022/10/16 10:36:39;;;;;;;7.28;4.53;;;;;;;20.74;67.69;98526.62;1733458;81;21264;-82
2022/10/16 10:39:25;;;;;;;8.13;5.20;;;;;;;20.71;65.84;98530.05;1733469;82;21039;-82
2022/10/16 10:42:30;;;;;;;7.80;5.05;;;;;;;20.73;65.86;98530.52;1733544;82;21070;-82
2022/10/16 10:45:18;;;;;;;6.75;4.87;;;;;;;20.71;67.73;98530.05;1733547;82;21031;-81
2022/10/16 10:48:13;;;;;;;8.23;5.72;;;;;;;20.79;67.85;98531.95;1733491;80;21031;-82
2022/10/16 10:50:47;;;;;;;9.23;5.67;;;;;;;20.81;67.82;98526.09;1732621;81;21102;-82
2022/10/16 10:53:37;;;;;;;9.63;5.67;;;;;;;20.91;68.14;98526.27;1733194;82;21800;-82
2022/10/16 10:56:31;;;;;;;10.55;4.75;;;;;;;21.03;68.18;98528.54;1709843;81;21090;-82
2022/10/16 10:59:22;;;;;;;6.97;4.97;;;;;;;21.07;68.36;98532.22;1733356;82;21071;-82
2022/10/16 11:01:53;;;;;;;6.08;3.42;;;;;;;21.11;65.94;98523.53;1739465;81;21007;-82
2022/10/16 11:04:39;;;;;;;7.12;3.45;;;;;;;21.15;64.44;98530.55;1750081;81;21043;-82
2022/10/16 11:07:10;;;;;;;5.70;4.25;;;;;;;21.22;64.55;98529.44;1749764;81;21594;-82
2022/10/16 11:09:40;;;;;;;6.05;5.08;;;;;;;21.26;65.39;98528.17;1733525;82;21031;-82
2022/10/16 11:12:19;;;;;;;8.28;3.75;;;;;;;21.28;66.17;98522.61;1733686;81;21115;-82
2022/10/16 11:14:56;;;;;;;5.90;3.22;;;;;;;21.28;65.70;98528.70;1732924;82;21031;-82
2022/10/16 11:17:32;;;;;;;6.12;3.67;;;;;;;21.28;65.88;98525.94;1763709;79;21066;-82
2022/10/16 11:20:18;;;;;;;7.92;5.12;;;;;;;21.23;66.04;98525.53;1781807;79;22108;-82
2022/10/16 11:23:25;;;;;;;12.78;9.53;;;;;;;21.15;66.19;98526.41;1744578;81;21075;-82
2022/10/16 11:25:51;;;;;;;6.10;4.37;;;;;;;21.09;65.46;98530.50;1730723;82;21545;-82
2022/10/16 11:28:28;;;;;;;8.83;3.95;;;;;;;20.95;66.37;98528.61;1743912;81;21561;-82
2022/10/16 11:31:15;;;;;;;5.37;4.00;;;;;;;20.88;66.30;98526.95;1767481;81;21016;-82
2022/10/16 11:34:17;;;;;;;6.10;4.67;;;;;;;20.83;66.65;98525.99;1768643;81;20904;-82
2022/10/16 11:37:05;;;;;;;5.90;4.72;;;;;;;20.78;66.63;98524.03;1769053;81;20929;-82